メインページ
METAR-TAF:

METAR-TAF

空港 :

Havre City-County Airport

Havre, モンタナ州, アメリカ合衆国

緯度: 48-32-34N, 経度: 109-45-48W, 海抜: 789m

現時点の気象観測

当レポートは52分前の09:53(UTC)に作成
南西の風 11kt
気温 1°C
湿度 51%
気圧 1011 hPa
視程: 16.1km
晴天

METAR: KHVR 220953Z AUTO 22011KT 10SM CLR 01/M08 A2984 RMK AO2 SLP115 T00111083

時間: 03:45 (10:45 UTC)

予報

当レポートは5時間20分前の05:25(UTC)に作成
予報は22日の 06時(UTC)から 23日の 06時(UTC)まで有効
南西の風 14kt
視程: 10km
高度20000ftの雲は散在している
22日の 1800時(UTC)から
西/南西の風 18kt、最大30ktの突風を伴う
視程: 10km
高度9000ftの雲はほとんどない
高度20000ftの雲は散在している
23日の 0100時(UTC)から
西の風 11kt
視程: 10km
高度10000ftの雲はほとんどない

TAF: KHVR 220525Z 2206/2306 22014KT P6SM SCT200 WS020/28035KT FM221800 25018G30KT P6SM FEW090 SCT200 FM230100 27011KT P6SM FEW100

4,000以上の空港の気象観測と天気予報(METAR報とTAF報)

利用可能な観測所は地図上に黄色い丸と赤い丸で示す。

丸の上にカーソルを重ねると観測所名を参照できる。

次にクリックすると気象観測と天気予報を参照できる。

マップの切り替え:黒色「×」印の緑ボタンをクリックして拡大、「-」印の緑ボタンをクリックして縮小、緑色の三角印をクリックして隣りの地図に切り替え


METAR-TAF: